Time;durP1;ratioP1;P1;durP2;ratioP2;P2;SDS_P1;SDS_P2;PMS_P1;PMS_P2;Temp;Humidity;BMP_temperature;BMP_pressure;BME280_temperature;BME280_humidity;BME280_pressure;Samples;Min_cycle;Max_cycle;Signal;HPM_P1;HPM_P2
2023/06/25 00:03:23;;;;;;;8.15;4.43;;;;;;;20.06;68.26;100148.00;12214548;19;20007;-80
2023/06/25 00:07:24;;;;;;;7.00;4.10;;;;;;;20.04;68.50;100151.09;12193395;19;20015;-80
2023/06/25 00:11:26;;;;;;;5.93;3.90;;;;;;;20.02;69.21;100133.81;12216503;19;20015;-79
2023/06/25 00:15:28;;;;;;;6.18;4.20;;;;;;;20.00;69.00;100132.44;12214978;19;20337;-79
2023/06/25 00:19:30;;;;;;;6.65;3.90;;;;;;;19.98;69.37;100138.31;12194124;19;20407;-78
2023/06/25 00:23:32;;;;;;;10.13;4.05;;;;;;;19.96;69.28;100132.22;12204818;19;20040;-80
2023/06/25 00:27:33;;;;;;;6.25;4.20;;;;;;;19.95;69.56;100132.53;12217053;19;20575;-79
2023/06/25 00:31:37;;;;;;;10.47;4.17;;;;;;;19.94;69.49;100131.69;12193281;19;20013;-80
2023/06/25 00:35:51;;;;;;;7.85;4.10;;;;;;;19.92;70.61;100124.75;12206522;19;20256;-79
2023/06/25 00:39:52;;;;;;;7.57;4.32;;;;;;;19.88;70.11;100124.53;12216177;19;20018;-79
2023/06/25 00:43:55;;;;;;;6.70;4.38;;;;;;;19.86;70.47;100124.00;12192489;19;20051;-79
2023/06/25 00:47:58;;;;;;;6.40;4.03;;;;;;;19.84;70.54;100123.47;12213247;19;20488;-80
2023/06/25 00:52:00;;;;;;;6.75;3.85;;;;;;;19.81;70.42;100121.28;12217595;19;20027;-80
2023/06/25 00:56:03;;;;;;;6.77;3.87;;;;;;;19.81;70.66;100121.28;12204403;19;20092;-78
2023/06/25 01:00:05;;;;;;;7.35;4.00;;;;;;;19.80;71.04;100114.03;12228536;19;20078;-79
2023/06/25 01:04:14;;;;;;;6.20;3.95;;;;;;;19.79;70.68;100115.16;12226968;19;20014;-79
2023/06/25 01:08:17;;;;;;;7.78;3.90;;;;;;;19.77;71.04;100120.22;12203975;19;20052;-78
2023/06/25 01:12:18;;;;;;;6.82;3.50;;;;;;;19.73;71.66;100111.63;12220639;19;20006;-79
2023/06/25 01:16:20;;;;;;;8.13;4.30;;;;;;;19.71;72.23;100108.28;12203866;19;20027;-80
2023/06/25 01:20:22;;;;;;;6.10;3.90;;;;;;;19.69;71.74;100115.31;12229276;19;20021;-80
2023/06/25 01:24:25;;;;;;;7.10;4.13;;;;;;;19.67;71.72;100106.41;12227831;19;20243;-79
2023/06/25 01:28:26;;;;;;;5.05;3.33;;;;;;;19.65;72.31;100108.69;12207059;19;20019;-79
2023/06/25 01:32:28;;;;;;;7.35;3.80;;;;;;;19.62;72.48;100112.88;12226261;19;20014;-79
2023/06/25 01:36:30;;;;;;;5.30;3.90;;;;;;;19.59;72.60;100100.31;12226894;19;20022;-79
2023/06/25 01:40:32;;;;;;;6.60;4.33;;;;;;;19.53;72.85;100107.13;12203258;19;20284;-80
2023/06/25 01:44:34;;;;;;;6.72;4.45;;;;;;;19.49;73.10;100099.66;12226021;19;20010;-79
2023/06/25 01:48:35;;;;;;;8.30;4.17;;;;;;;19.46;73.76;100097.47;12224032;19;20006;-80
2023/06/25 01:52:39;;;;;;;6.25;4.18;;;;;;;19.42;73.90;100094.44;12202593;19;20349;-80
2023/06/25 01:56:42;;;;;;;6.88;3.78;;;;;;;19.41;74.69;100094.75;12225082;19;20019;-79
2023/06/25 02:00:43;;;;;;;;;;;;;;;19.39;74.98;100088.63;12221730;19;20025;-79
2023/06/25 02:04:45;;;;;;;13.05;4.57;;;;;;;19.38;73.11;100084.19;12193913;19;20026;-80
2023/06/25 02:08:48;;;;;;;7.82;4.05;;;;;;;19.43;74.04;100084.94;12221405;19;20010;-78
2023/06/25 02:12:49;;;;;;;5.67;3.73;;;;;;;19.39;74.49;100083.84;12219047;19;20516;-79
2023/06/25 02:16:51;;;;;;;7.57;4.10;;;;;;;19.35;75.17;100077.22;12199017;19;20425;-79
2023/06/25 02:20:53;;;;;;;5.97;3.72;;;;;;;19.33;74.89;100068.31;12217738;19;20038;-80
2023/06/25 02:24:55;;;;;;;6.40;3.70;;;;;;;19.28;75.04;100074.81;12219001;19;20103;-80
2023/06/25 02:28:57;;;;;;;7.30;4.40;;;;;;;19.27;75.13;100072.31;12196976;19;20022;-80
2023/06/25 02:32:59;;;;;;;7.15;4.43;;;;;;;19.27;75.43;100075.94;12216948;19;20020;-79
2023/06/25 02:37:11;;;;;;;7.25;4.53;;;;;;;19.25;75.27;100075.41;12219724;19;20010;-80
2023/06/25 02:41:13;;;;;;;5.97;4.57;;;;;;;19.23;75.34;100076.84;12195287;19;20019;-79
2023/06/25 02:45:15;;;;;;;6.00;4.60;;;;;;;19.19;75.05;100078.59;12216469;19;20098;-80
2023/06/25 02:49:17;;;;;;;5.68;4.07;;;;;;;19.19;74.89;100073.81;12216036;19;20066;-79
2023/06/25 02:53:18;;;;;;;7.25;3.50;;;;;;;19.16;74.82;100071.63;12193328;19;20010;-79
2023/06/25 02:57:23;;;;;;;6.82;4.22;;;;;;;19.12;75.70;100068.59;12217873;19;20014;-79
2023/06/25 03:01:24;;;;;;;6.10;4.13;;;;;;;19.06;76.37;100069.78;12190348;19;20015;-79
2023/06/25 03:05:26;;;;;;;7.70;4.70;;;;;;;18.99;76.60;100058.19;12216597;19;20010;-80
2023/06/25 03:09:28;;;;;;;7.13;3.95;;;;;;;18.95;76.76;100062.72;12213688;19;20069;-79
2023/06/25 03:13:31;;;;;;;6.40;4.80;;;;;;;18.91;77.95;100058.84;12193104;19;20043;-81
2023/06/25 03:17:33;;;;;;;6.40;3.72;;;;;;;18.87;77.70;100066.16;12216622;19;20013;-80
2023/06/25 03:21:35;;;;;;;6.35;4.13;;;;;;;18.84;78.36;100061.19;12216580;19;20006;-80
2023/06/25 03:25:38;;;;;;;5.45;3.55;;;;;;;18.83;77.51;100067.91;12196029;19;20078;-78
2023/06/25 03:29:50;;;;;;;6.22;3.75;;;;;;;18.82;77.19;100064.25;12214883;19;20006;-78
2023/06/25 03:33:52;;;;;;;7.93;3.40;;;;;;;18.85;77.21;100068.41;12213933;19;20006;-78
2023/06/25 03:37:55;;;;;;;5.78;4.38;;;;;;;18.86;76.88;100061.72;12193099;19;20062;-79
2023/06/25 03:41:57;;;;;;;5.70;3.40;;;;;;;18.87;76.52;100057.78;12216160;19;20925;-78
2023/06/25 03:45:59;;;;;;;6.53;4.17;;;;;;;18.89;76.08;100053.56;12215085;19;20006;-79
2023/06/25 03:50:01;;;;;;;6.53;4.60;;;;;;;18.92;76.06;100052.13;12190825;19;20019;-79
2023/06/25 03:54:06;;;;;;;7.28;3.58;;;;;;;18.96;76.42;100044.81;12214182;19;20479;-80
2023/06/25 03:58:09;;;;;;;6.20;4.45;;;;;;;18.99;76.88;100055.38;12218087;19;20570;-78
2023/06/25 04:02:11;;;;;;;5.72;3.60;;;;;;;18.97;77.47;100049.25;12193756;19;20028;-80
2023/06/25 04:06:13;;;;;;;7.30;4.53;;;;;;;18.95;78.10;100048.75;12216005;19;20487;-81
2023/06/25 04:10:16;;;;;;;6.47;4.15;;;;;;;18.92;78.56;100054.06;12216446;19;20010;-79
2023/06/25 04:14:19;;;;;;;;;;;;;;;18.87;79.04;100049.41;12200916;19;20010;-80
2023/06/25 04:18:21;;;;;;;6.80;4.55;;;;;;;18.86;79.29;100051.38;12223775;19;20023;-80
2023/06/25 04:22:23;;;;;;;6.63;4.20;;;;;;;18.88;79.39;100056.63;12200775;19;20017;-79
2023/06/25 04:26:25;;;;;;;7.57;4.30;;;;;;;18.95;78.34;100048.75;12221791;19;20006;-79
2023/06/25 04:30:26;;;;;;;5.55;3.67;;;;;;;19.00;78.50;100048.66;12229474;19;20014;-80
2023/06/25 04:34:29;;;;;;;6.35;4.18;;;;;;;19.00;78.10;100051.44;12197164;19;20014;-80
2023/06/25 04:38:33;;;;;;;7.60;4.07;;;;;;;19.04;78.75;100046.13;12219351;19;20010;-81
2023/06/25 04:42:35;;;;;;;7.93;4.45;;;;;;;19.05;78.98;100054.19;12218959;19;20010;-80
2023/06/25 04:46:36;;;;;;;7.65;4.65;;;;;;;19.05;80.16;100050.56;12198163;19;20003;-79
2023/06/25 04:50:38;;;;;;;6.70;4.40;;;;;;;19.06;79.95;100047.44;12224569;19;20124;-79
2023/06/25 04:54:40;;;;;;;6.20;4.40;;;;;;;19.06;81.33;100055.81;12228313;19;20044;-79
2023/06/25 04:58:42;;;;;;;9.45;4.80;;;;;;;19.04;82.57;100060.91;12203539;19;20010;-79
2023/06/25 05:02:43;;;;;;;6.55;4.65;;;;;;;19.03;82.67;100056.44;12217261;19;20018;-78
2023/06/25 05:06:45;;;;;;;5.47;4.22;;;;;;;19.02;83.40;100056.75;12218229;19;20030;-79
2023/06/25 05:10:47;;;;;;;7.03;4.72;;;;;;;19.01;83.70;100055.91;12194579;19;20011;-79
2023/06/25 05:14:49;;;;;;;8.10;4.68;;;;;;;19.03;83.69;100059.22;12217710;19;20007;-78
2023/06/25 05:18:50;;;;;;;7.50;4.32;;;;;;;19.05;84.05;100059.75;12218661;19;20106;-79
2023/06/25 05:22:53;;;;;;;6.80;5.03;;;;;;;19.08;84.53;100061.97;12191660;19;20399;-79
2023/06/25 05:26:55;;;;;;;6.43;4.30;;;;;;;19.17;84.70;100064.09;12217444;19;20717;-79
2023/06/25 05:30:57;;;;;;;6.63;3.97;;;;;;;19.24;84.45;100067.31;12215249;19;20031;-80
2023/06/25 05:34:58;;;;;;;7.22;4.15;;;;;;;19.32;83.86;100066.66;12196736;19;19999;-79
2023/06/25 05:39:00;;;;;;;5.43;3.83;;;;;;;19.40;83.24;100065.16;12227096;19;20043;-79
2023/06/25 05:43:03;;;;;;;6.75;4.68;;;;;;;19.53;81.61;100068.00;12227100;19;20010;-81
2023/06/25 05:47:04;;;;;;;6.57;4.20;;;;;;;19.71;81.36;100062.72;12206955;19;20011;-80
2023/06/25 05:51:07;;;;;;;7.77;4.23;;;;;;;19.91;79.11;100056.78;12228950;19;20025;-79
2023/06/25 05:55:09;;;;;;;9.83;4.70;;;;;;;20.10;78.83;100059.53;12229085;19;20023;-80
2023/06/25 05:59:11;;;;;;;8.05;4.28;;;;;;;20.25;78.78;100066.81;12209069;19;20364;-79
2023/06/25 06:03:12;;;;;;;6.03;3.90;;;;;;;20.44;77.80;100064.78;12225527;19;20456;-80
2023/06/25 06:07:14;;;;;;;7.80;4.70;;;;;;;20.65;76.66;100075.59;12233739;19;19999;-79
2023/06/25 06:11:17;;;;;;;6.55;4.05;;;;;;;20.86;74.27;100067.63;12216619;19;20010;-81
2023/06/25 06:15:19;;;;;;;6.57;4.47;;;;;;;21.12;72.27;100065.09;12231858;19;20027;-81
2023/06/25 06:19:21;;;;;;;6.30;3.77;;;;;;;21.37;70.88;100072.94;12212652;19;20011;-80
2023/06/25 06:23:24;;;;;;;6.73;4.47;;;;;;;21.60;69.10;100067.38;12227147;19;20677;-81
2023/06/25 06:27:26;;;;;;;6.50;3.65;;;;;;;21.82;67.34;100067.38;12230545;19;20037;-81
2023/06/25 06:31:27;;;;;;;6.77;3.97;;;;;;;22.05;64.64;100070.19;12205667;19;20484;-81
2023/06/25 06:35:29;;;;;;;6.20;4.40;;;;;;;22.33;62.82;100075.66;12232605;19;20014;-80
2023/06/25 06:39:31;;;;;;;6.13;3.95;;;;;;;22.64;59.73;100067.22;12227344;19;20582;-80
2023/06/25 06:43:33;;;;;;;7.15;4.15;;;;;;;22.93;59.02;100075.06;12206992;19;20027;-79
2023/06/25 06:47:35;;;;;;;6.38;3.65;;;;;;;23.14;57.98;100073.34;12225402;19;20139;-80
2023/06/25 06:51:37;;;;;;;6.33;4.47;;;;;;;23.36;57.26;100072.38;12216962;19;21977;-81
2023/06/25 06:55:39;;;;;;;7.88;4.13;;;;;;;23.66;55.34;100078.19;12203514;19;20037;-80
2023/06/25 06:59:40;;;;;;;6.43;4.00;;;;;;;23.96;50.94;100078.34;12225125;19;20524;-81
2023/06/25 07:03:44;;;;;;;6.53;4.30;;;;;;;24.29;49.71;100087.06;12222832;19;20027;-80
2023/06/25 07:07:46;;;;;;;8.07;4.43;;;;;;;24.50;49.28;100078.75;12201811;19;20579;-80
2023/06/25 07:11:48;;;;;;;;;;;;;;;24.70;49.71;100080.81;12222795;19;20006;-80
2023/06/25 07:15:50;;;;;;;7.13;4.88;;;;;;;24.97;48.58;100075.88;12227070;19;19990;-81
2023/06/25 07:19:51;;;;;;;7.53;4.50;;;;;;;25.19;47.74;100075.63;12202189;19;20023;-81
2023/06/25 07:23:53;;;;;;;7.87;5.13;;;;;;;25.40;46.22;100072.84;12224876;19;20368;-79
2023/06/25 07:27:55;;;;;;;6.77;4.37;;;;;;;25.61;45.82;100074.81;12224829;19;20006;-82
2023/06/25 07:31:57;;;;;;;9.70;4.73;;;;;;;25.89;45.62;100075.09;12190526;19;20270;-79
2023/06/25 07:35:58;;;;;;;7.78;4.70;;;;;;;26.14;46.10;100082.47;12206781;19;20018;-80
2023/06/25 07:40:00;;;;;;;7.87;4.77;;;;;;;26.33;44.20;100076.31;12206073;19;20036;-82
2023/06/25 07:44:02;;;;;;;6.38;4.45;;;;;;;26.45;44.08;100078.34;12195434;19;21081;-81
2023/06/25 07:48:24;;;;;;;6.75;4.75;;;;;;;26.74;43.18;100063.22;12215753;19;20015;-81
2023/06/25 07:52:26;;;;;;;;;;;;;;;26.84;41.80;100075.22;12194206;19;20031;-81
2023/06/25 07:56:29;;;;;;;;;;;;;;;26.91;41.56;100070.63;12218245;19;20025;-81
2023/06/25 08:00:30;;;;;;;7.28;5.05;;;;;;;27.07;42.19;100072.72;12213943;19;19917;-80
2023/06/25 08:04:32;;;;;;;7.40;4.80;;;;;;;27.23;41.44;100073.69;12197115;19;20019;-80
2023/06/25 08:08:34;;;;;;;;;;;;;;;27.31;41.72;100069.06;12216332;19;20010;-80
2023/06/25 08:12:38;;;;;;;10.02;5.03;;;;;;;27.56;40.76;100067.03;12196858;19;19910;-79
2023/06/25 08:16:40;;;;;;;7.40;4.93;;;;;;;27.78;38.54;100058.00;12195279;19;20004;-79
2023/06/25 08:20:43;;;;;;;6.57;4.45;;;;;;;27.82;39.48;100063.78;12217567;19;20022;-79
2023/06/25 08:24:44;;;;;;;6.38;4.80;;;;;;;28.07;39.32;100059.66;12216963;19;20011;-79
2023/06/25 08:28:46;;;;;;;6.55;4.63;;;;;;;28.41;39.01;100051.72;12198086;19;20007;-80
2023/06/25 08:32:50;;;;;;;6.75;4.72;;;;;;;28.71;38.11;100048.41;12217501;19;20074;-79
2023/06/25 08:36:51;;;;;;;5.60;4.13;;;;;;;28.84;37.62;100061.28;12217020;19;20027;-79
2023/06/25 08:40:54;;;;;;;5.53;4.13;;;;;;;28.97;37.23;100051.50;12196010;19;20021;-79
2023/06/25 08:44:56;;;;;;;6.38;4.03;;;;;;;29.10;35.46;100054.25;12210647;19;20083;-79
2023/06/25 08:49:00;;;;;;;9.77;4.22;;;;;;;29.15;35.09;100051.97;12210313;19;20034;-79
2023/06/25 08:53:02;;;;;;;5.18;3.80;;;;;;;29.19;35.78;100050.00;12187395;19;20021;-79
2023/06/25 08:57:07;;;;;;;6.55;4.07;;;;;;;29.28;35.23;100041.28;12211675;19;20066;-79
2023/06/25 09:01:10;;;;;;;5.95;4.38;;;;;;;29.24;35.47;100044.06;12221155;19;20015;-78
2023/06/25 09:05:13;;;;;;;5.95;4.13;;;;;;;29.41;34.84;100048.47;12199533;19;20051;-79
2023/06/25 09:09:16;;;;;;;5.53;4.30;;;;;;;29.43;34.08;100037.59;12216427;19;20007;-79
2023/06/25 09:13:22;;;;;;;5.80;4.25;;;;;;;29.38;34.18;100034.22;12220422;19;20014;-78
2023/06/25 09:17:24;;;;;;;5.82;3.25;;;;;;;29.50;33.36;100034.88;12204983;19;20491;-79
2023/06/25 09:21:35;;;;;;;6.80;3.90;;;;;;;29.80;33.29;100025.81;12222662;19;20010;-78
2023/06/25 09:25:37;;;;;;;6.20;4.25;;;;;;;29.87;33.46;100025.16;12199068;19;20015;-78
2023/06/25 09:29:39;;;;;;;6.07;4.43;;;;;;;29.93;32.83;100018.78;12222545;19;20082;-79
2023/06/25 09:33:49;;;;;;;5.82;4.10;;;;;;;30.12;33.33;100005.72;12222164;19;20322;-77
2023/06/25 09:37:53;;;;;;;6.05;4.10;;;;;;;30.26;32.78;100002.38;12197464;19;20531;-77
2023/06/25 09:41:55;;;;;;;6.95;5.05;;;;;;;30.34;32.37;99998.44;12219611;19;20026;-77
2023/06/25 09:46:00;;;;;;;5.93;4.43;;;;;;;30.32;32.29;99998.81;12220042;19;20400;-77
2023/06/25 09:50:07;;;;;;;6.40;4.75;;;;;;;30.46;31.91;99994.56;12197226;19;20373;-77
2023/06/25 09:54:12;;;;;;;5.80;4.50;;;;;;;30.45;31.91;99987.25;12222434;19;20495;-77
2023/06/25 09:58:17;;;;;;;5.55;4.32;;;;;;;30.47;32.23;99987.72;12220069;19;20110;-78
2023/06/25 10:02:19;;;;;;;7.85;5.50;;;;;;;30.42;31.88;99988.84;12200652;19;20010;-77
2023/06/25 10:06:22;;;;;;;7.22;4.63;;;;;;;30.65;31.44;99977.44;12219915;19;20113;-78
2023/06/25 10:10:29;;;;;;;6.97;4.50;;;;;;;30.94;31.09;99978.75;12197358;19;20054;-77
2023/06/25 10:14:39;;;;;;;6.63;4.28;;;;;;;31.07;30.43;99970.78;12220218;19;20027;-77
2023/06/25 10:18:43;;;;;;;;;;;;;;;31.18;30.28;99970.94;12220763;19;20015;-77
2023/06/25 10:22:44;;;;;;;5.57;4.10;;;;;;;31.33;29.47;99979.28;12190555;19;19919;-77
2023/06/25 10:26:52;;;;;;;7.35;4.30;;;;;;;31.43;29.93;99968.44;12213389;19;20562;-76
2023/06/25 10:30:55;;;;;;;6.00;4.45;;;;;;;31.53;29.58;99968.59;12217937;19;20011;-77
2023/06/25 10:35:01;;;;;;;7.13;4.63;;;;;;;31.45;30.22;99960.34;12196463;19;20014;-77
2023/06/25 10:39:03;;;;;;;6.25;4.60;;;;;;;31.49;30.30;99958.34;12218187;19;20003;-77
2023/06/25 10:43:06;;;;;;;5.78;4.18;;;;;;;31.44;29.74;99938.75;12216460;19;20422;-77
2023/06/25 10:47:09;;;;;;;6.88;4.38;;;;;;;31.68;29.94;99941.09;12193483;19;20011;-76
2023/06/25 10:51:11;;;;;;;7.40;4.80;;;;;;;31.98;29.35;99938.19;12215125;19;20050;-76
2023/06/25 10:55:13;;;;;;;10.23;4.85;;;;;;;32.10;29.41;99939.91;12214230;19;20497;-77
2023/06/25 10:59:23;;;;;;;7.18;4.65;;;;;;;32.14;28.80;99935.06;12192483;19;20010;-77
2023/06/25 11:03:25;;;;;;;5.40;4.15;;;;;;;32.08;29.21;99922.38;12212376;19;20018;-76
2023/06/25 11:07:27;;;;;;;5.45;4.03;;;;;;;32.16;29.52;99921.25;12187555;19;20011;-77
2023/06/25 11:11:32;;;;;;;6.80;4.78;;;;;;;32.46;29.27;99917.44;12213799;19;20472;-76
2023/06/25 11:15:33;;;;;;;;;;;;;;;32.38;28.92;99913.69;12216277;19;20464;-77
2023/06/25 11:19:37;;;;;;;4.85;4.03;;;;;;;32.54;28.92;99907.69;12191028;19;20369;-77
2023/06/25 11:23:42;;;;;;;6.82;4.90;;;;;;;32.75;28.42;99900.50;12210465;19;20027;-77
2023/06/25 11:27:45;;;;;;;7.60;4.78;;;;;;;32.96;28.39;99900.66;12210423;19;20014;-77
2023/06/25 11:31:53;;;;;;;6.25;4.50;;;;;;;33.08;27.80;99894.63;12191328;19;20031;-77
2023/06/25 11:36:09;;;;;;;7.65;5.07;;;;;;;33.21;27.31;99889.38;12212002;19;20002;-77
2023/06/25 11:40:23;;;;;;;6.28;4.65;;;;;;;33.19;27.67;99880.38;12215532;19;20014;-78
2023/06/25 11:44:25;;;;;;;5.95;4.43;;;;;;;33.34;27.38;99873.47;12193032;19;20407;-77
2023/06/25 11:48:29;;;;;;;6.30;4.30;;;;;;;33.50;27.58;99867.44;12216739;19;20006;-78
2023/06/25 11:52:31;;;;;;;6.90;5.20;;;;;;;33.62;27.18;99869.13;12193834;19;20078;-76
2023/06/25 11:56:33;;;;;;;5.25;4.40;;;;;;;33.74;27.03;99868.72;12210633;19;20013;-77
2023/06/25 12:00:34;;;;;;;;;;;;;;;33.70;26.48;99873.63;12214115;19;20035;-77
2023/06/25 12:04:36;;;;;;;6.97;4.78;;;;;;;33.71;26.77;99857.28;12192327;19;20290;-77
2023/06/25 12:08:38;;;;;;;5.45;4.53;;;;;;;33.86;26.38;99855.28;12214878;19;20090;-78
2023/06/25 12:12:41;;;;;;;5.78;4.45;;;;;;;34.12;26.60;99848.34;12216908;19;20015;-77
2023/06/25 12:16:44;;;;;;;5.60;4.80;;;;;;;34.47;26.60;99844.63;12191662;19;20014;-77
2023/06/25 12:20:47;;;;;;;5.85;4.95;;;;;;;35.12;25.53;99854.69;12213733;19;20746;-78
2023/06/25 12:24:48;;;;;;;7.43;5.20;;;;;;;35.97;24.37;99846.81;12210166;19;20030;-77
2023/06/25 12:28:50;;;;;;;10.68;4.60;;;;;;;36.91;23.57;99844.66;12188180;19;20018;-78
2023/06/25 12:32:55;;;;;;;6.43;4.65;;;;;;;37.77;22.91;99834.91;12212570;19;20358;-78
2023/06/25 12:36:57;;;;;;;6.57;5.05;;;;;;;38.73;21.91;99834.47;12214188;19;20039;-77
2023/06/25 12:41:00;;;;;;;7.28;5.25;;;;;;;39.45;20.54;99825.16;12191327;19;20015;-78
2023/06/25 12:45:01;;;;;;;5.43;4.90;;;;;;;39.90;20.60;99812.16;12216124;19;20027;-78
2023/06/25 12:49:04;;;;;;;5.50;4.72;;;;;;;40.44;19.35;99814.47;12224965;19;20030;-78
2023/06/25 12:53:06;;;;;;;7.35;4.97;;;;;;;40.71;19.54;99817.84;12201984;19;20025;-77
2023/06/25 12:57:07;;;;;;;5.20;4.70;;;;;;;40.97;18.79;99803.47;12226920;19;20728;-78
2023/06/25 13:01:14;;;;;;;5.75;4.70;;;;;;;41.62;19.05;99803.13;12225922;19;20017;-78
2023/06/25 13:05:16;;;;;;;5.03;4.47;;;;;;;41.90;18.07;99800.56;12202025;19;20002;-78
2023/06/25 13:09:19;;;;;;;9.63;5.25;;;;;;;42.25;18.01;99798.50;12227152;19;20006;-78
2023/06/25 13:13:22;;;;;;;6.57;4.40;;;;;;;42.72;17.05;99802.69;12203670;19;20007;-78
2023/06/25 13:17:23;;;;;;;5.35;4.72;;;;;;;42.96;17.05;99794.31;12226784;19;20390;-77
2023/06/25 13:21:25;;;;;;;5.32;4.82;;;;;;;42.99;17.02;99784.66;12222828;19;20007;-78
2023/06/25 13:25:27;;;;;;;6.45;4.88;;;;;;;43.28;17.38;99784.34;12204838;19;20018;-77
2023/06/25 13:29:30;;;;;;;5.38;4.88;;;;;;;43.49;16.38;99790.56;12217854;19;20014;-77
2023/06/25 13:33:31;;;;;;;5.57;4.90;;;;;;;43.75;16.33;99791.97;12223568;19;20496;-78
2023/06/25 13:37:33;;;;;;;5.18;4.68;;;;;;;43.58;15.84;99782.75;12199197;19;20006;-78
2023/06/25 13:41:35;;;;;;;7.53;4.90;;;;;;;43.37;16.14;99772.81;12224345;19;20010;-79
2023/06/25 13:45:37;;;;;;;5.25;4.75;;;;;;;44.19;16.07;99765.63;12223491;19;20010;-78
2023/06/25 13:49:42;;;;;;;5.90;4.43;;;;;;;44.33;15.74;99772.94;12203157;19;20015;-79
2023/06/25 13:53:44;;;;;;;5.32;4.75;;;;;;;45.11;15.11;99777.19;12215369;19;20017;-78
2023/06/25 13:57:46;;;;;;;8.30;5.13;;;;;;;45.47;14.90;99769.66;12220424;19;20006;-78
2023/06/25 14:01:48;;;;;;;5.88;4.80;;;;;;;45.42;14.68;99752.84;12195440;19;20085;-78
2023/06/25 14:05:50;;;;;;;5.78;4.72;;;;;;;44.93;14.87;99749.00;12216319;19;20500;-78
2023/06/25 14:09:52;;;;;;;9.38;5.05;;;;;;;45.14;15.10;99740.56;12216179;19;20504;-76
2023/06/25 14:13:54;;;;;;;6.03;4.93;;;;;;;45.91;14.86;99735.00;12196765;19;20086;-78
2023/06/25 14:17:56;;;;;;;5.05;4.55;;;;;;;46.69;14.01;99731.31;12221791;19;20014;-75
2023/06/25 14:21:59;;;;;;;6.10;4.63;;;;;;;47.23;13.88;99737.84;12214725;19;20011;-76
2023/06/25 14:26:06;;;;;;;5.90;4.63;;;;;;;47.26;13.52;99722.22;12193125;19;20010;-78
2023/06/25 14:30:09;;;;;;;5.10;4.57;;;;;;;47.68;12.70;99723.94;12208181;19;20338;-76
2023/06/25 14:34:11;;;;;;;5.25;4.75;;;;;;;47.63;13.12;99713.81;12216033;19;20410;-76
2023/06/25 14:38:15;;;;;;;5.65;4.47;;;;;;;47.97;13.08;99710.56;12191280;19;20011;-76
2023/06/25 14:42:16;;;;;;;6.00;4.90;;;;;;;48.25;12.79;99713.84;12216108;19;20006;-76
2023/06/25 14:46:20;;;;;;;5.18;4.68;;;;;;;48.43;12.50;99707.69;12201288;19;20007;-76
2023/06/25 14:50:22;;;;;;;5.45;4.68;;;;;;;48.18;12.65;99712.16;12212006;19;20007;-75
2023/06/25 14:54:25;;;;;;;5.30;4.80;;;;;;;47.64;12.68;99700.00;12211815;19;20097;-76
2023/06/25 14:58:27;;;;;;;5.35;4.82;;;;;;;47.42;13.08;99694.63;12193077;19;20396;-76
2023/06/25 15:02:28;;;;;;;5.03;4.53;;;;;;;45.56;13.87;99693.97;12209539;19;20014;-79
2023/06/25 15:06:31;;;;;;;5.57;4.38;;;;;;;43.22;16.17;99705.06;12218838;19;20014;-78
2023/06/25 15:10:37;;;;;;;5.75;4.88;;;;;;;42.68;16.05;99694.75;12189750;19;20018;-78
2023/06/25 15:14:38;;;;;;;5.20;4.70;;;;;;;42.40;16.06;99693.78;12214752;19;20023;-77
2023/06/25 15:18:41;;;;;;;4.90;4.40;;;;;;;43.79;15.47;99679.47;12215588;19;20003;-79
2023/06/25 15:22:45;;;;;;;6.72;4.68;;;;;;;44.26;15.03;99681.06;12192376;19;20014;-78
2023/06/25 15:26:47;;;;;;;5.07;4.55;;;;;;;41.87;16.15;99674.97;12213436;19;20006;-76
2023/06/25 15:30:49;;;;;;;5.20;4.43;;;;;;;39.82;17.55;99678.84;12209788;19;20422;-78
2023/06/25 15:34:51;;;;;;;5.68;5.13;;;;;;;37.76;19.49;99671.47;12193797;19;20014;-78
2023/06/25 15:38:54;;;;;;;6.22;4.80;;;;;;;36.60;20.25;99665.88;12214115;19;20010;-77
2023/06/25 15:43:08;;;;;;;6.18;4.72;;;;;;;35.69;21.13;99644.34;12212086;19;20082;-78
2023/06/25 15:47:10;;;;;;;5.70;4.80;;;;;;;34.73;22.41;99654.47;12191234;19;20020;-78
2023/06/25 15:51:15;;;;;;;6.25;5.32;;;;;;;34.24;22.83;99644.91;12210119;19;20011;-78
2023/06/25 15:55:20;;;;;;;5.43;4.90;;;;;;;34.08;23.63;99644.53;12214461;19;20007;-77
2023/06/25 15:59:22;;;;;;;6.18;4.95;;;;;;;33.89;23.61;99635.19;12192705;19;20082;-78
2023/06/25 16:03:24;;;;;;;6.50;5.07;;;;;;;33.41;24.17;99632.78;12210872;19;20029;-77
2023/06/25 16:07:26;;;;;;;6.55;5.40;;;;;;;32.95;24.89;99621.34;12191661;19;20006;-77
2023/06/25 16:11:28;;;;;;;;;;;;;;;32.53;25.57;99620.03;12208769;19;20057;-77
2023/06/25 16:15:30;;;;;;;;;;;;;;;32.43;25.17;99618.78;12208563;19;19953;-78
2023/06/25 16:19:31;;;;;;;6.43;4.47;;;;;;;32.37;25.74;99628.94;12189570;19;19915;-77
2023/06/25 16:23:53;;;;;;;6.22;4.47;;;;;;;32.31;26.27;99634.22;12207154;19;20014;-77
2023/06/25 16:27:55;;;;;;;;;;;;;;;32.23;26.04;99626.84;12212821;19;20086;-77
2023/06/25 16:31:56;;;;;;;6.70;4.53;;;;;;;32.03;26.08;99620.63;12184275;19;20372;-77
2023/06/25 16:35:58;;;;;;;6.15;4.47;;;;;;;31.77;26.50;99622.53;12204398;19;20027;-77
2023/06/25 16:40:01;;;;;;;5.80;4.25;;;;;;;31.57;26.94;99621.16;12206645;19;20015;-78
2023/06/25 16:44:03;;;;;;;6.95;4.85;;;;;;;31.46;26.68;99617.44;12184936;19;20067;-77
2023/06/25 16:48:06;;;;;;;;;;;;;;;31.26;27.45;99614.81;12207272;19;20011;-77
2023/06/25 16:52:09;;;;;;;5.97;4.72;;;;;;;31.23;27.70;99615.59;12210492;19;20399;-78
2023/06/25 16:56:11;;;;;;;6.03;4.85;;;;;;;31.14;27.71;99620.81;12184984;19;20011;-78
2023/06/25 17:00:13;;;;;;;;;;;;;;;31.02;27.91;99615.41;12204534;19;20011;-77
2023/06/25 17:04:17;;;;;;;7.13;4.57;;;;;;;30.97;27.96;99618.63;12205463;19;19936;-77
2023/06/25 17:08:19;;;;;;;5.78;4.18;;;;;;;30.99;28.12;99613.34;12183897;19;20070;-76
2023/06/25 17:12:20;;;;;;;6.28;4.60;;;;;;;30.91;28.27;99606.81;12205682;19;20025;-77
2023/06/25 17:16:23;;;;;;;5.45;4.13;;;;;;;30.85;28.50;99617.72;12183460;19;20006;-77
2023/06/25 17:20:25;;;;;;;5.72;4.72;;;;;;;30.77;28.57;99618.81;12204677;19;20474;-77
2023/06/25 17:24:26;;;;;;;6.13;4.50;;;;;;;30.71;28.92;99614.69;12209617;19;20006;-77
2023/06/25 17:28:29;;;;;;;6.32;4.40;;;;;;;30.67;29.04;99619.53;12187989;19;20747;-76
2023/06/25 17:32:31;;;;;;;;;;;;;;;30.57;28.57;99621.03;12205464;19;20014;-77
2023/06/25 17:36:33;;;;;;;5.88;4.45;;;;;;;30.56;29.25;99612.91;12245161;19;20250;-77
2023/06/25 17:40:35;;;;;;;6.05;4.32;;;;;;;30.55;29.13;99619.78;12243798;19;20363;-77
2023/06/25 17:44:36;;;;;;;8.18;4.90;;;;;;;30.48;29.07;99614.03;12244697;19;20014;-77
2023/06/25 17:48:38;;;;;;;5.20;4.05;;;;;;;30.42;29.17;99610.72;12245721;19;20031;-77
2023/06/25 17:52:40;;;;;;;;;;;;;;;30.29;29.52;99618.72;12237928;19;20488;-77
2023/06/25 17:56:42;;;;;;;5.00;3.83;;;;;;;30.24;30.27;99615.38;12234156;19;19918;-77
2023/06/25 18:00:44;;;;;;;5.55;4.18;;;;;;;30.08;30.54;99615.56;12168703;19;20007;-78
2023/06/25 18:04:46;;;;;;;5.93;4.10;;;;;;;29.91;30.59;99620.63;12178655;19;20194;-79
2023/06/25 18:08:48;;;;;;;8.13;4.10;;;;;;;29.81;30.88;99621.31;12170825;19;20018;-78
2023/06/25 18:12:50;;;;;;;6.85;4.03;;;;;;;29.68;31.24;99622.72;12223317;19;20006;-78
2023/06/25 18:16:54;;;;;;;7.13;4.85;;;;;;;29.60;31.68;99620.94;12201540;19;20018;-78
2023/06/25 18:20:56;;;;;;;6.88;5.10;;;;;;;29.50;32.02;99620.41;12234983;19;20026;-79
2023/06/25 18:24:57;;;;;;;6.63;4.22;;;;;;;29.36;32.51;99620.22;12208899;19;20019;-78
2023/06/25 18:28:59;;;;;;;7.57;4.72;;;;;;;29.22;33.29;99619.97;12191227;19;20033;-78
2023/06/25 18:33:02;;;;;;;6.32;4.43;;;;;;;29.05;33.93;99624.16;12211406;19;20464;-77
2023/06/25 18:37:04;;;;;;;6.10;4.45;;;;;;;28.89;34.62;99624.25;12220428;19;20019;-78
2023/06/25 18:41:06;;;;;;;7.57;4.82;;;;;;;28.71;35.23;99623.13;12194726;19;20368;-77
2023/06/25 18:45:08;;;;;;;6.82;4.20;;;;;;;28.52;35.59;99619.09;12216031;19;20405;-78
2023/06/25 18:49:10;;;;;;;6.35;4.32;;;;;;;28.34;36.19;99612.25;12217070;19;20006;-78